Airfield :
LOGIN :

Register | Disclaimer

   EN    FR    IT 

 










Legend :    VFR   Marginal VFR   IFR   Intensive IFR   Very Intensive IFR
Visi :
Ceiling :
>= 8 km
>= 3000ft
5 to 8 km
1000 to 3000 ft
1500m to 5 km
500 to 1000 ft
800 to 1500m
200 to 500 ft
< 800m
< 200 ft
Symbols :   Thunderstorms  Fog  Heavy snow  Heavy precipitations  Wind > 20 kt
SIGMETs :     Misc.  Thunderstorms  Icing  Turbulence  Mountain Waves  Volcanic Ashes






- Airport Elevation : 53 ft
- IATA code : HRT


EGXU - RAF Linton-on-Ouse

CURRENT METAR :
  • 200950Z AUTO 22023G34KT 4500 +RA FEW017/// BKN023/// 09/06 Q0997

EXPIRED METARs :
  • 200935Z 21019KT 9999 RA OVC023 11/07 Q0996 RMK WHT
  • 200920Z 20018KT 9999 BKN024 BKN031 11/07 Q0996 RMK WHT
  • 200850Z 19020KT 9999 OVC024 11/06 Q0996 RMK WHT
  • 200820Z 19017G29KT 9999 OVC026 11/06 Q0997 RMK BLU
  • 200750Z 20020KT 9999 OVC026 11/06 Q0998 RMK BLU

TAF TAF EGXU
Valid from the 20 at 09:00 until the 20 at 18:00 UTC


200801Z 2009/2018 20018G28KT 9999 BKN025
TEMPO 2009/2011 7000 RA BKN018
PROB30
TEMPO 2009/2011 27025G38KT 3000 +RA SCT010
BECMG 2011/2013 27018G28KT
TEMPO 2011/2013 SCT018
PROB30
TEMPO 2014/2017 4000 SHRASN SCT015



MET'MAP, your aeronautical weather chart ! - Copyright ORBIFLY December 2007 - Disclaimer

ORBIFLY MET'MAP TEAM :

Programming & Development : Alexandra Zaïnal
Concept & original design : Baudouin d'Aumeries
Assistance for programming : Marc-Olivier Méhu
Technical & hardware support : Manuel Goepfert

Contact : metmap@orbifly.com




SOURCES & CREDITS :

   NOAA